sensor_id;sensor_type;location;lat;lon;timestamp;pressure;altitude;pressure_sealevel;temperature;humidity
38022;BME280;23832;43.216;27.946;2023-04-01T08:47:12;99704.69;;;21.24;63.38
38022;BME280;23832;43.216;27.946;2023-04-01T08:49:27;99702.06;;;21.70;61.27
38022;BME280;23832;43.216;27.946;2023-04-01T08:51:44;99702.59;;;21.46;62.79
38022;BME280;23832;43.216;27.946;2023-04-01T08:53:56;99697.22;;;21.46;62.04
38022;BME280;23832;43.216;27.946;2023-04-01T08:56:04;99696.97;;;21.63;60.66
38022;BME280;23832;43.216;27.946;2023-04-01T09:00:36;99691.06;;;22.07;59.52
38022;BME280;23832;43.216;27.946;2023-04-01T09:02:46;99693.63;;;22.53;57.90
38022;BME280;23832;43.216;27.946;2023-04-01T09:04:57;99692.78;;;23.22;56.61
38022;BME280;23832;43.216;27.946;2023-04-01T09:07:07;99682.84;;;23.57;54.65
38022;BME280;23832;43.216;27.946;2023-04-01T09:09:19;99678.59;;;23.85;53.06
38022;BME280;23832;43.216;27.946;2023-04-01T09:11:28;99676.19;;;23.49;53.57
38022;BME280;23832;43.216;27.946;2023-04-01T09:16:17;99669.97;;;23.14;54.03
38022;BME280;23832;43.216;27.946;2023-04-01T09:18:43;99667.13;;;22.96;54.59
38022;BME280;23832;43.216;27.946;2023-04-01T09:20:53;99662.53;;;22.47;55.36
38022;BME280;23832;43.216;27.946;2023-04-01T09:23:04;99666.94;;;21.41;57.45
38022;BME280;23832;43.216;27.946;2023-04-01T09:27:31;99665.31;;;21.35;60.53
38022;BME280;23832;43.216;27.946;2023-04-01T09:29:42;99658.00;;;21.00;62.05
38022;BME280;23832;43.216;27.946;2023-04-01T09:31:51;99653.06;;;20.56;65.40
38022;BME280;23832;43.216;27.946;2023-04-01T09:34:04;99656.13;;;20.90;65.06
38022;BME280;23832;43.216;27.946;2023-04-01T09:36:12;99648.38;;;21.09;64.51
38022;BME280;23832;43.216;27.946;2023-04-01T09:38:22;99655.31;;;20.89;65.52
38022;BME280;23832;43.216;27.946;2023-04-01T09:40:28;99643.25;;;20.87;66.09
38022;BME280;23832;43.216;27.946;2023-04-01T09:42:42;99645.63;;;20.83;65.48
38022;BME280;23832;43.216;27.946;2023-04-01T09:44:45;99636.03;;;20.97;65.39
38022;BME280;23832;43.216;27.946;2023-04-01T09:46:54;99645.94;;;20.97;64.98
38022;BME280;23832;43.216;27.946;2023-04-01T09:51:30;99626.09;;;20.20;71.64
38022;BME280;23832;43.216;27.946;2023-04-01T09:53:37;99625.34;;;19.82;75.43
38022;BME280;23832;43.216;27.946;2023-04-01T09:55:54;99628.13;;;19.98;74.84
38022;BME280;23832;43.216;27.946;2023-04-01T09:58:05;99610.81;;;20.10;74.06
38022;BME280;23832;43.216;27.946;2023-04-01T10:07:20;99589.63;;;20.04;73.50
38022;BME280;23832;43.216;27.946;2023-04-01T10:14:33;99580.09;;;19.39;86.32
38022;BME280;23832;43.216;27.946;2023-04-01T10:19:09;99578.19;;;19.66;85.32
38022;BME280;23832;43.216;27.946;2023-04-01T10:21:29;99564.19;;;19.54;85.42
38022;BME280;23832;43.216;27.946;2023-04-01T10:23:42;99555.78;;;19.40;88.74
38022;BME280;23832;43.216;27.946;2023-04-01T10:26:10;99559.28;;;19.78;84.64
38022;BME280;23832;43.216;27.946;2023-04-01T10:30:47;99570.25;;;19.81;86.17
38022;BME280;23832;43.216;27.946;2023-04-01T10:33:19;99569.69;;;20.32;82.06
38022;BME280;23832;43.216;27.946;2023-04-01T10:35:45;99564.25;;;21.40;72.40
38022;BME280;23832;43.216;27.946;2023-04-01T10:40:46;99565.84;;;21.11;72.69
38022;BME280;23832;43.216;27.946;2023-04-01T10:43:00;99556.75;;;21.22;71.40
38022;BME280;23832;43.216;27.946;2023-04-01T10:45:18;99555.41;;;20.94;73.58
38022;BME280;23832;43.216;27.946;2023-04-01T10:47:31;99544.94;;;21.13;72.29
38022;BME280;23832;43.216;27.946;2023-04-01T10:49:46;99549.50;;;21.07;72.06
38022;BME280;23832;43.216;27.946;2023-04-01T10:52:04;99551.34;;;21.02;73.51
38022;BME280;23832;43.216;27.946;2023-04-01T10:58:56;99541.78;;;20.07;81.10
38022;BME280;23832;43.216;27.946;2023-04-01T11:05:57;99534.75;;;20.79;74.48
38022;BME280;23832;43.216;27.946;2023-04-01T11:13:00;99510.38;;;20.60;76.07
38022;BME280;23832;43.216;27.946;2023-04-01T11:17:38;99507.38;;;20.57;76.63
38022;BME280;23832;43.216;27.946;2023-04-01T11:19:56;99504.47;;;20.89;74.12
38022;BME280;23832;43.216;27.946;2023-04-01T11:22:20;99505.28;;;20.84;75.38
38022;BME280;23832;43.216;27.946;2023-04-01T11:27:04;99490.81;;;20.70;75.88
38022;BME280;23832;43.216;27.946;2023-04-01T11:31:42;99502.03;;;20.57;76.83
38022;BME280;23832;43.216;27.946;2023-04-01T11:33:50;99494.28;;;20.50;77.57
38022;BME280;23832;43.216;27.946;2023-04-01T11:35:57;99487.88;;;20.97;74.39
38022;BME280;23832;43.216;27.946;2023-04-01T11:38:05;99491.34;;;20.62;76.81
38022;BME280;23832;43.216;27.946;2023-04-01T11:40:11;99487.34;;;20.80;75.44
38022;BME280;23832;43.216;27.946;2023-04-01T11:42:17;99492.97;;;20.98;73.74
38022;BME280;23832;43.216;27.946;2023-04-01T11:44:23;99496.63;;;20.36;78.68
38022;BME280;23832;43.216;27.946;2023-04-01T11:46:28;99489.22;;;21.00;75.47
38022;BME280;23832;43.216;27.946;2023-04-01T11:48:46;99494.50;;;21.61;68.89
38022;BME280;23832;43.216;27.946;2023-04-01T11:50:59;99490.50;;;22.67;64.18
38022;BME280;23832;43.216;27.946;2023-04-01T11:55:25;99479.75;;;23.54;59.96
38022;BME280;23832;43.216;27.946;2023-04-01T12:00:10;99462.50;;;23.60;58.79
38022;BME280;23832;43.216;27.946;2023-04-01T12:02:18;99462.91;;;22.90;59.96
38022;BME280;23832;43.216;27.946;2023-04-01T12:04:37;99462.91;;;22.90;59.97
38022;BME280;23832;43.216;27.946;2023-04-01T12:06:47;99464.19;;;22.98;59.93
38022;BME280;23832;43.216;27.946;2023-04-01T12:08:51;99460.34;;;23.33;58.25
38022;BME280;23832;43.216;27.946;2023-04-01T12:10:58;99460.41;;;22.99;58.94
38022;BME280;23832;43.216;27.946;2023-04-01T12:13:04;99451.22;;;21.88;62.23
38022;BME280;23832;43.216;27.946;2023-04-01T12:15:14;99457.28;;;22.14;62.34
38022;BME280;23832;43.216;27.946;2023-04-01T12:17:21;99454.41;;;21.90;63.09
38022;BME280;23832;43.216;27.946;2023-04-01T12:19:32;99458.00;;;22.24;62.78
38022;BME280;23832;43.216;27.946;2023-04-01T12:21:36;99448.56;;;22.32;62.18
38022;BME280;23832;43.216;27.946;2023-04-01T12:23:44;99446.00;;;22.06;63.31
38022;BME280;23832;43.216;27.946;2023-04-01T12:26:00;99443.34;;;22.01;63.69
38022;BME280;23832;43.216;27.946;2023-04-01T12:28:10;99437.19;;;21.41;67.07
38022;BME280;23832;43.216;27.946;2023-04-01T12:32:43;99439.88;;;21.31;69.21
38022;BME280;23832;43.216;27.946;2023-04-01T12:34:53;99448.19;;;21.24;70.31
38022;BME280;23832;43.216;27.946;2023-04-01T12:37:00;99387.41;;;20.23;75.72
38022;BME280;23832;43.216;27.946;2023-04-01T12:41:26;99451.69;;;21.05;73.71
38022;BME280;23832;43.216;27.946;2023-04-01T12:45:52;99451.06;;;20.06;84.48
38022;BME280;23832;43.216;27.946;2023-04-01T12:52:50;99454.16;;;19.25;98.12
38022;BME280;23832;43.216;27.946;2023-04-01T12:55:07;99438.88;;;19.15;99.68
38022;BME280;23832;43.216;27.946;2023-04-01T12:57:21;99437.72;;;19.48;93.44
38022;BME280;23832;43.216;27.946;2023-04-01T12:59:32;99430.97;;;19.36;95.04
38022;BME280;23832;43.216;27.946;2023-04-01T13:01:51;99442.03;;;19.54;92.93
38022;BME280;23832;43.216;27.946;2023-04-01T13:06:32;99431.44;;;19.75;89.56
38022;BME280;23832;43.216;27.946;2023-04-01T13:08:38;99421.84;;;19.26;98.67
38022;BME280;23832;43.216;27.946;2023-04-01T13:10:56;99421.47;;;19.13;100.00
38022;BME280;23832;43.216;27.946;2023-04-01T13:17:37;99417.63;;;19.41;100.00
38022;BME280;23832;43.216;27.946;2023-04-01T13:19:43;99420.19;;;19.15;100.00
38022;BME280;23832;43.216;27.946;2023-04-01T13:21:50;99410.03;;;19.17;100.00
38022;BME280;23832;43.216;27.946;2023-04-01T13:23:56;99409.94;;;19.02;100.00
38022;BME280;23832;43.216;27.946;2023-04-01T13:26:08;99409.28;;;18.85;100.00
38022;BME280;23832;43.216;27.946;2023-04-01T13:28:17;99401.84;;;18.92;100.00
38022;BME280;23832;43.216;27.946;2023-04-01T13:30:24;99400.94;;;18.71;100.00
38022;BME280;23832;43.216;27.946;2023-04-01T13:32:29;99403.34;;;18.78;100.00
38022;BME280;23832;43.216;27.946;2023-04-01T13:34:38;99410.88;;;18.86;100.00
38022;BME280;23832;43.216;27.946;2023-04-01T13:36:45;99406.63;;;18.85;100.00
38022;BME280;23832;43.216;27.946;2023-04-01T13:38:59;99407.69;;;19.26;100.00
38022;BME280;23832;43.216;27.946;2023-04-01T13:41:05;99389.94;;;18.67;100.00
38022;BME280;23832;43.216;27.946;2023-04-01T13:43:14;99392.75;;;19.40;100.00
38022;BME280;23832;43.216;27.946;2023-04-01T13:45:19;99388.38;;;19.71;99.06
38022;BME280;23832;43.216;27.946;2023-04-01T13:47:33;99393.81;;;19.97;95.65
38022;BME280;23832;43.216;27.946;2023-04-01T13:52:06;99390.94;;;19.46;100.00
38022;BME280;23832;43.216;27.946;2023-04-01T13:54:22;99386.94;;;19.53;100.00
38022;BME280;23832;43.216;27.946;2023-04-01T13:56:29;99395.97;;;19.32;100.00
38022;BME280;23832;43.216;27.946;2023-04-01T13:58:39;99386.63;;;19.40;100.00
38022;BME280;23832;43.216;27.946;2023-04-01T14:00:47;99396.72;;;19.90;97.01
38022;BME280;23832;43.216;27.946;2023-04-01T14:05:15;99404.31;;;19.51;97.13
38022;BME280;23832;43.216;27.946;2023-04-01T14:07:29;99399.59;;;19.63;95.86
38022;BME280;23832;43.216;27.946;2023-04-01T14:09:38;99398.63;;;19.37;100.00
38022;BME280;23832;43.216;27.946;2023-04-01T14:11:46;99390.13;;;19.45;98.90
38022;BME280;23832;43.216;27.946;2023-04-01T14:13:56;99390.13;;;19.45;99.42
38022;BME280;23832;43.216;27.946;2023-04-01T14:16:05;99382.91;;;19.46;97.84
38022;BME280;23832;43.216;27.946;2023-04-01T14:18:16;99383.00;;;19.61;98.37
38022;BME280;23832;43.216;27.946;2023-04-01T14:20:25;99387.44;;;19.45;98.04
38022;BME280;23832;43.216;27.946;2023-04-01T14:22:31;99392.16;;;19.23;100.00
38022;BME280;23832;43.216;27.946;2023-04-01T14:24:42;99396.28;;;19.46;97.66
38022;BME280;23832;43.216;27.946;2023-04-01T14:26:54;99395.06;;;18.74;100.00
38022;BME280;23832;43.216;27.946;2023-04-01T14:29:02;99397.47;;;18.76;100.00
38022;BME280;23832;43.216;27.946;2023-04-01T14:31:17;99391.41;;;18.53;100.00
38022;BME280;23832;43.216;27.946;2023-04-01T14:33:25;99378.66;;;18.60;100.00
38022;BME280;23832;43.216;27.946;2023-04-01T14:35:33;99368.19;;;18.54;100.00
38022;BME280;23832;43.216;27.946;2023-04-01T14:37:47;99369.66;;;18.66;100.00
38022;BME280;23832;43.216;27.946;2023-04-01T14:40:03;99378.16;;;18.63;100.00
38022;BME280;23832;43.216;27.946;2023-04-01T14:42:13;99383.09;;;18.82;100.00
38022;BME280;23832;43.216;27.946;2023-04-01T14:44:23;99386.25;;;19.16;100.00
38022;BME280;23832;43.216;27.946;2023-04-01T14:48:49;99367.03;;;19.87;93.74
38022;BME280;23832;43.216;27.946;2023-04-01T14:50:53;99369.66;;;19.76;94.31
38022;BME280;23832;43.216;27.946;2023-04-01T14:52:59;99375.56;;;19.83;97.49
38022;BME280;23832;43.216;27.946;2023-04-01T14:55:10;99361.34;;;19.68;100.00
38022;BME280;23832;43.216;27.946;2023-04-01T14:57:23;99352.44;;;19.42;100.00
38022;BME280;23832;43.216;27.946;2023-04-01T14:59:26;99354.19;;;19.21;100.00
38022;BME280;23832;43.216;27.946;2023-04-01T15:01:32;99351.97;;;19.03;100.00
38022;BME280;23832;43.216;27.946;2023-04-01T15:03:46;99358.69;;;19.05;100.00
38022;BME280;23832;43.216;27.946;2023-04-01T15:05:51;99340.22;;;19.04;100.00
38022;BME280;23832;43.216;27.946;2023-04-01T15:08:06;99341.56;;;19.01;100.00
38022;BME280;23832;43.216;27.946;2023-04-01T15:10:12;99339.38;;;18.93;100.00
38022;BME280;23832;43.216;27.946;2023-04-01T15:12:23;99326.75;;;18.78;100.00
38022;BME280;23832;43.216;27.946;2023-04-01T15:14:35;99331.50;;;19.18;100.00
38022;BME280;23832;43.216;27.946;2023-04-01T15:16:40;99337.22;;;19.42;100.00
38022;BME280;23832;43.216;27.946;2023-04-01T15:18:45;99323.00;;;19.37;100.00
38022;BME280;23832;43.216;27.946;2023-04-01T15:20:53;99340.22;;;19.61;100.00
38022;BME280;23832;43.216;27.946;2023-04-01T15:23:02;99320.75;;;19.81;100.00
38022;BME280;23832;43.216;27.946;2023-04-01T15:25:17;99330.03;;;19.53;100.00
38022;BME280;23832;43.216;27.946;2023-04-01T15:27:25;99322.31;;;19.67;100.00
38022;BME280;23832;43.216;27.946;2023-04-01T15:29:38;99322.59;;;19.60;100.00
38022;BME280;23832;43.216;27.946;2023-04-01T15:31:43;99316.91;;;19.51;100.00
38022;BME280;23832;43.216;27.946;2023-04-01T15:33:49;99327.72;;;19.09;100.00
38022;BME280;23832;43.216;27.946;2023-04-01T15:35:57;99334.66;;;19.10;100.00
38022;BME280;23832;43.216;27.946;2023-04-01T15:38:04;99324.50;;;19.07;100.00
38022;BME280;23832;43.216;27.946;2023-04-01T15:40:11;99332.81;;;18.68;100.00
38022;BME280;23832;43.216;27.946;2023-04-01T15:42:23;99333.19;;;18.50;100.00
38022;BME280;23832;43.216;27.946;2023-04-01T15:44:44;99316.56;;;18.75;100.00
38022;BME280;23832;43.216;27.946;2023-04-01T15:46:47;99313.50;;;18.56;100.00
38022;BME280;23832;43.216;27.946;2023-04-01T15:48:53;99311.16;;;18.28;100.00
38022;BME280;23832;43.216;27.946;2023-04-01T15:51:02;99305.84;;;18.33;100.00
38022;BME280;23832;43.216;27.946;2023-04-01T15:53:13;99307.63;;;18.17;100.00
38022;BME280;23832;43.216;27.946;2023-04-01T15:55:20;99307.28;;;18.08;100.00
38022;BME280;23832;43.216;27.946;2023-04-01T15:57:31;99336.59;;;18.08;100.00
38022;BME280;23832;43.216;27.946;2023-04-01T15:59:39;99311.41;;;17.94;100.00
38022;BME280;23832;43.216;27.946;2023-04-01T16:01:44;99320.72;;;17.92;100.00
38022;BME280;23832;43.216;27.946;2023-04-01T16:03:50;99314.81;;;18.17;100.00
38022;BME280;23832;43.216;27.946;2023-04-01T16:05:57;99321.56;;;17.97;100.00
38022;BME280;23832;43.216;27.946;2023-04-01T16:08:15;99325.28;;;17.96;100.00
38022;BME280;23832;43.216;27.946;2023-04-01T16:12:47;99330.25;;;17.87;100.00
38022;BME280;23832;43.216;27.946;2023-04-01T16:14:54;99336.66;;;17.86;100.00
38022;BME280;23832;43.216;27.946;2023-04-01T16:17:05;99345.97;;;17.84;100.00
38022;BME280;23832;43.216;27.946;2023-04-01T16:19:17;99344.06;;;17.79;100.00
38022;BME280;23832;43.216;27.946;2023-04-01T16:21:33;99352.06;;;17.79;100.00
38022;BME280;23832;43.216;27.946;2023-04-01T16:23:38;99347.03;;;17.83;100.00
38022;BME280;23832;43.216;27.946;2023-04-01T16:25:43;99352.16;;;17.90;100.00
38022;BME280;23832;43.216;27.946;2023-04-01T16:27:50;99349.50;;;17.90;100.00
38022;BME280;23832;43.216;27.946;2023-04-01T16:29:56;99342.44;;;17.56;100.00
38022;BME280;23832;43.216;27.946;2023-04-01T16:32:11;99354.22;;;17.60;100.00
38022;BME280;23832;43.216;27.946;2023-04-01T16:34:16;99351.06;;;17.64;100.00
38022;BME280;23832;43.216;27.946;2023-04-01T16:36:22;99348.72;;;17.45;100.00
38022;BME280;23832;43.216;27.946;2023-04-01T16:38:30;99350.38;;;17.51;100.00
38022;BME280;23832;43.216;27.946;2023-04-01T16:40:36;99355.22;;;17.33;100.00
38022;BME280;23832;43.216;27.946;2023-04-01T16:42:40;99341.72;;;17.39;100.00
38022;BME280;23832;43.216;27.946;2023-04-01T16:44:48;99351.13;;;17.25;100.00
38022;BME280;23832;43.216;27.946;2023-04-01T16:46:51;99343.94;;;17.47;100.00
38022;BME280;23832;43.216;27.946;2023-04-01T16:49:01;99343.94;;;17.47;100.00
38022;BME280;23832;43.216;27.946;2023-04-01T16:51:09;99338.72;;;17.57;100.00
38022;BME280;23832;43.216;27.946;2023-04-01T16:53:14;99337.13;;;17.56;100.00
38022;BME280;23832;43.216;27.946;2023-04-01T16:55:20;99345.66;;;17.58;100.00
38022;BME280;23832;43.216;27.946;2023-04-01T16:57:24;99348.16;;;17.43;100.00
38022;BME280;23832;43.216;27.946;2023-04-01T16:59:29;99343.34;;;17.18;100.00
38022;BME280;23832;43.216;27.946;2023-04-01T17:01:40;99338.81;;;17.41;100.00
38022;BME280;23832;43.216;27.946;2023-04-01T17:03:45;99332.50;;;17.47;100.00
38022;BME280;23832;43.216;27.946;2023-04-01T17:06:03;99335.09;;;17.42;100.00
38022;BME280;23832;43.216;27.946;2023-04-01T17:08:09;99332.84;;;17.34;100.00
38022;BME280;23832;43.216;27.946;2023-04-01T17:12:42;99333.91;;;17.11;100.00
38022;BME280;23832;43.216;27.946;2023-04-01T17:14:49;99331.31;;;17.16;100.00
38022;BME280;23832;43.216;27.946;2023-04-01T17:16:59;99328.47;;;17.00;100.00
38022;BME280;23832;43.216;27.946;2023-04-01T17:19:05;99328.03;;;17.09;100.00
38022;BME280;23832;43.216;27.946;2023-04-01T17:21:13;99321.81;;;17.25;100.00
38022;BME280;23832;43.216;27.946;2023-04-01T17:23:19;99319.84;;;17.15;100.00
38022;BME280;23832;43.216;27.946;2023-04-01T17:25:41;99312.00;;;17.25;100.00
38022;BME280;23832;43.216;27.946;2023-04-01T17:27:49;99320.00;;;17.25;100.00
38022;BME280;23832;43.216;27.946;2023-04-01T17:29:59;99313.41;;;17.33;100.00
38022;BME280;23832;43.216;27.946;2023-04-01T17:32:06;99319.28;;;17.13;100.00
38022;BME280;23832;43.216;27.946;2023-04-01T17:34:23;99319.53;;;17.12;100.00
38022;BME280;23832;43.216;27.946;2023-04-01T17:36:33;99311.09;;;16.98;100.00
38022;BME280;23832;43.216;27.946;2023-04-01T17:40:57;99305.69;;;17.10;100.00
38022;BME280;23832;43.216;27.946;2023-04-01T17:43:07;99308.28;;;17.05;100.00
38022;BME280;23832;43.216;27.946;2023-04-01T17:45:18;99309.44;;;17.14;100.00
38022;BME280;23832;43.216;27.946;2023-04-01T17:47:40;99307.88;;;17.40;100.00
38022;BME280;23832;43.216;27.946;2023-04-01T17:49:56;99306.78;;;17.36;100.00
38022;BME280;23832;43.216;27.946;2023-04-01T17:52:04;99311.53;;;17.34;100.00
38022;BME280;23832;43.216;27.946;2023-04-01T17:54:12;99314.34;;;17.44;100.00
38022;BME280;23832;43.216;27.946;2023-04-01T17:56:25;99311.69;;;17.44;100.00
38022;BME280;23832;43.216;27.946;2023-04-01T17:58:35;99327.41;;;17.23;100.00
38022;BME280;23832;43.216;27.946;2023-04-01T18:00:47;99331.63;;;17.41;100.00
38022;BME280;23832;43.216;27.946;2023-04-01T18:02:57;99337.69;;;16.93;100.00
38022;BME280;23832;43.216;27.946;2023-04-01T18:05:12;99336.19;;;17.02;100.00
38022;BME280;23832;43.216;27.946;2023-04-01T18:07:22;99334.97;;;16.54;100.00
38022;BME280;23832;43.216;27.946;2023-04-01T18:09:27;99331.81;;;16.40;100.00
38022;BME280;23832;43.216;27.946;2023-04-01T18:11:34;99327.47;;;16.34;100.00
38022;BME280;23832;43.216;27.946;2023-04-01T18:13:46;99333.91;;;16.22;100.00
38022;BME280;23832;43.216;27.946;2023-04-01T18:15:55;99324.97;;;16.44;100.00
38022;BME280;23832;43.216;27.946;2023-04-01T18:18:08;99319.97;;;16.31;100.00
38022;BME280;23832;43.216;27.946;2023-04-01T18:20:18;99299.00;;;15.84;100.00
38022;BME280;23832;43.216;27.946;2023-04-01T18:22:26;99296.25;;;15.79;100.00
38022;BME280;23832;43.216;27.946;2023-04-01T18:24:30;99293.84;;;15.95;100.00
38022;BME280;23832;43.216;27.946;2023-04-01T18:26:35;99299.50;;;16.15;100.00
38022;BME280;23832;43.216;27.946;2023-04-01T18:28:41;99306.59;;;16.26;100.00
38022;BME280;23832;43.216;27.946;2023-04-01T18:30:50;99302.69;;;15.83;100.00
38022;BME280;23832;43.216;27.946;2023-04-01T18:32:57;99307.91;;;15.78;100.00
38022;BME280;23832;43.216;27.946;2023-04-01T18:35:08;99307.06;;;16.06;100.00
38022;BME280;23832;43.216;27.946;2023-04-01T18:37:17;99293.47;;;16.36;100.00
38022;BME280;23832;43.216;27.946;2023-04-01T18:39:21;99295.47;;;16.29;100.00
38022;BME280;23832;43.216;27.946;2023-04-01T18:41:30;99316.75;;;16.29;100.00
38022;BME280;23832;43.216;27.946;2023-04-01T18:43:36;99319.47;;;16.34;100.00
38022;BME280;23832;43.216;27.946;2023-04-01T18:45:43;99316.56;;;16.69;100.00
38022;BME280;23832;43.216;27.946;2023-04-01T18:47:49;99316.41;;;16.76;100.00
38022;BME280;23832;43.216;27.946;2023-04-01T18:49:59;99331.56;;;16.59;100.00
38022;BME280;23832;43.216;27.946;2023-04-01T18:52:07;99338.84;;;16.46;100.00
38022;BME280;23832;43.216;27.946;2023-04-01T18:54:11;99332.38;;;16.59;100.00
38022;BME280;23832;43.216;27.946;2023-04-01T18:56:15;99332.72;;;16.63;100.00
38022;BME280;23832;43.216;27.946;2023-04-01T18:58:25;99341.59;;;16.68;100.00
38022;BME280;23832;43.216;27.946;2023-04-01T19:00:32;99356.88;;;16.61;100.00
38022;BME280;23832;43.216;27.946;2023-04-01T19:02:40;99359.50;;;16.73;100.00
38022;BME280;23832;43.216;27.946;2023-04-01T19:04:44;99367.34;;;16.68;100.00
38022;BME280;23832;43.216;27.946;2023-04-01T19:06:50;99354.63;;;16.70;100.00
38022;BME280;23832;43.216;27.946;2023-04-01T19:08:53;99344.88;;;16.59;100.00
38022;BME280;23832;43.216;27.946;2023-04-01T19:10:58;99344.25;;;16.68;100.00
38022;BME280;23832;43.216;27.946;2023-04-01T19:13:10;99353.81;;;16.53;100.00
38022;BME280;23832;43.216;27.946;2023-04-01T19:15:20;99348.41;;;16.64;100.00
38022;BME280;23832;43.216;27.946;2023-04-01T19:17:26;99351.41;;;16.34;100.00
38022;BME280;23832;43.216;27.946;2023-04-01T19:19:40;99351.56;;;16.11;100.00
38022;BME280;23832;43.216;27.946;2023-04-01T19:21:47;99347.28;;;16.10;100.00
38022;BME280;23832;43.216;27.946;2023-04-01T19:23:59;99354.59;;;16.03;100.00
38022;BME280;23832;43.216;27.946;2023-04-01T19:26:10;99350.91;;;16.04;100.00
38022;BME280;23832;43.216;27.946;2023-04-01T19:28:19;99349.78;;;16.16;100.00
38022;BME280;23832;43.216;27.946;2023-04-01T19:32:47;99355.41;;;16.03;100.00
38022;BME280;23832;43.216;27.946;2023-04-01T19:34:53;99362.66;;;16.08;100.00
38022;BME280;23832;43.216;27.946;2023-04-01T19:37:01;99364.75;;;16.06;100.00
38022;BME280;23832;43.216;27.946;2023-04-01T19:39:09;99350.91;;;16.04;100.00
38022;BME280;23832;43.216;27.946;2023-04-01T19:41:21;99359.91;;;16.03;100.00
38022;BME280;23832;43.216;27.946;2023-04-01T19:43:27;99363.44;;;16.08;100.00
38022;BME280;23832;43.216;27.946;2023-04-01T19:45:34;99371.97;;;15.94;100.00
38022;BME280;23832;43.216;27.946;2023-04-01T19:47:44;99365.88;;;15.93;100.00
38022;BME280;23832;43.216;27.946;2023-04-01T19:49:51;99369.31;;;15.94;100.00
38022;BME280;23832;43.216;27.946;2023-04-01T19:51:56;99372.03;;;16.10;100.00
38022;BME280;23832;43.216;27.946;2023-04-01T19:54:03;99375.47;;;16.11;100.00
38022;BME280;23832;43.216;27.946;2023-04-01T19:56:14;99375.94;;;16.08;100.00
38022;BME280;23832;43.216;27.946;2023-04-01T19:58:20;99380.25;;;16.09;100.00
38022;BME280;23832;43.216;27.946;2023-04-01T20:00:26;99373.78;;;16.05;100.00
38022;BME280;23832;43.216;27.946;2023-04-01T20:02:37;99372.25;;;16.09;100.00
38022;BME280;23832;43.216;27.946;2023-04-01T20:04:41;99361.84;;;15.91;100.00
38022;BME280;23832;43.216;27.946;2023-04-01T20:06:45;99359.34;;;15.72;100.00
38022;BME280;23832;43.216;27.946;2023-04-01T20:08:54;99307.91;;;15.50;100.00
38022;BME280;23832;43.216;27.946;2023-04-01T20:11:03;99366.22;;;16.13;100.00
38022;BME280;23832;43.216;27.946;2023-04-01T20:13:11;99376.44;;;15.76;100.00
38022;BME280;23832;43.216;27.946;2023-04-01T20:15:22;99379.53;;;15.85;100.00
38022;BME280;23832;43.216;27.946;2023-04-01T20:17:26;99386.69;;;16.13;100.00
38022;BME280;23832;43.216;27.946;2023-04-01T20:19:34;99378.38;;;16.26;100.00
38022;BME280;23832;43.216;27.946;2023-04-01T20:21:41;99349.28;;;16.03;100.00
38022;BME280;23832;43.216;27.946;2023-04-01T20:23:45;99361.97;;;16.29;100.00
38022;BME280;23832;43.216;27.946;2023-04-01T20:25:47;99358.50;;;16.29;100.00
38022;BME280;23832;43.216;27.946;2023-04-01T20:27:55;99351.59;;;16.44;100.00
38022;BME280;23832;43.216;27.946;2023-04-01T20:30:12;99355.47;;;15.92;100.00
38022;BME280;23832;43.216;27.946;2023-04-01T20:32:27;99335.41;;;15.84;100.00
38022;BME280;23832;43.216;27.946;2023-04-01T20:36:57;99335.25;;;15.91;100.00
38022;BME280;23832;43.216;27.946;2023-04-01T20:39:10;99332.13;;;16.10;100.00
38022;BME280;23832;43.216;27.946;2023-04-01T20:41:20;99353.78;;;16.02;100.00
38022;BME280;23832;43.216;27.946;2023-04-01T20:43:45;99367.34;;;16.01;100.00
38022;BME280;23832;43.216;27.946;2023-04-01T20:45:53;99372.16;;;16.04;100.00
38022;BME280;23832;43.216;27.946;2023-04-01T20:48:00;99385.50;;;15.92;100.00
38022;BME280;23832;43.216;27.946;2023-04-01T20:50:07;99391.78;;;15.86;100.00
38022;BME280;23832;43.216;27.946;2023-04-01T20:52:22;99387.38;;;15.80;100.00
38022;BME280;23832;43.216;27.946;2023-04-01T20:54:35;99391.06;;;15.91;100.00
38022;BME280;23832;43.216;27.946;2023-04-01T20:56:47;99399.31;;;16.06;100.00
38022;BME280;23832;43.216;27.946;2023-04-01T20:58:54;99386.75;;;16.01;100.00
38022;BME280;23832;43.216;27.946;2023-04-01T21:01:04;99397.13;;;16.03;100.00
38022;BME280;23832;43.216;27.946;2023-04-01T21:03:18;99407.72;;;15.86;100.00
38022;BME280;23832;43.216;27.946;2023-04-01T21:05:34;99415.38;;;15.71;100.00
38022;BME280;23832;43.216;27.946;2023-04-01T21:07:40;99417.09;;;15.77;100.00
38022;BME280;23832;43.216;27.946;2023-04-01T21:09:46;99412.72;;;15.82;100.00
38022;BME280;23832;43.216;27.946;2023-04-01T21:11:54;99418.47;;;15.79;100.00
38022;BME280;23832;43.216;27.946;2023-04-01T21:14:03;99420.25;;;15.74;100.00
38022;BME280;23832;43.216;27.946;2023-04-01T21:16:22;99434.97;;;15.81;100.00
38022;BME280;23832;43.216;27.946;2023-04-01T21:18:37;99434.16;;;15.93;100.00
38022;BME280;23832;43.216;27.946;2023-04-01T21:20:51;99449.69;;;16.12;100.00
38022;BME280;23832;43.216;27.946;2023-04-01T21:23:03;99459.03;;;16.15;100.00
38022;BME280;23832;43.216;27.946;2023-04-01T21:27:43;99473.38;;;15.74;100.00
38022;BME280;23832;43.216;27.946;2023-04-01T21:29:51;99475.69;;;15.82;100.00
38022;BME280;23832;43.216;27.946;2023-04-01T21:32:01;99486.47;;;16.04;100.00
38022;BME280;23832;43.216;27.946;2023-04-01T21:34:25;99489.41;;;15.91;100.00